Time;durP1;ratioP1;P1;durP2;ratioP2;P2;SDS_P1;SDS_P2;PMS_P1;PMS_P2;Temp;Humidity;BMP_temperature;BMP_pressure;BME280_temperature;BME280_humidity;BME280_pressure;Samples;Min_cycle;Max_cycle;Signal;HPM_P1;HPM_P2
2022/06/19 00:00:37;;;;;;;10.30;5.87;;;27.70;78.80;;;;;;4939767;28;20411;-76
2022/06/19 00:03:13;;;;;;;10.23;6.07;;;27.70;79.00;;;;;;4959869;28;20434;-76
2022/06/19 00:05:40;;;;;;;8.00;6.60;;;27.60;79.20;;;;;;4955355;29;20564;-77
2022/06/19 00:08:09;;;;;;;10.27;6.33;;;27.60;79.40;;;;;;4974026;28;20414;-76
2022/06/19 00:10:38;;;;;;;8.70;6.73;;;27.60;79.70;;;;;;4973626;28;20493;-76
2022/06/19 00:13:03;;;;;;;12.37;7.03;;;27.50;80.00;;;;;;4955485;28;20431;-76
2022/06/19 00:15:30;;;;;;;8.87;6.33;;;27.40;80.30;;;;;;4964871;28;20434;-76
2022/06/19 00:17:58;;;;;;;7.70;6.30;;;27.40;80.50;;;;;;4956777;28;20860;-76
2022/06/19 00:20:24;;;;;;;10.20;5.87;;;27.30;80.80;;;;;;4962960;28;20947;-76
2022/06/19 00:22:50;;;;;;;8.40;6.10;;;27.30;81.00;;;;;;4957155;28;20461;-76
2022/06/19 00:25:18;;;;;;;12.80;6.23;;;27.30;81.30;;;;;;4963010;28;20454;-76
2022/06/19 00:27:46;;;;;;;7.20;5.67;;;27.30;81.50;;;;;;4963836;28;20434;-76
2022/06/19 00:30:13;;;;;;;10.20;5.93;;;27.20;81.80;;;;;;4969167;28;20502;-76
2022/06/19 00:32:39;;;;;;;7.47;5.90;;;27.20;82.10;;;;;;4969890;28;20450;-76
2022/06/19 00:35:09;;;;;;;8.10;5.77;;;27.20;82.50;;;;;;4973138;28;20438;-76
2022/06/19 00:37:36;;;;;;;10.70;5.83;;;27.20;82.70;;;;;;4959901;28;21002;-76
2022/06/19 00:40:04;;;;;;;7.77;5.40;;;27.10;83.00;;;;;;4944495;28;20819;-76
2022/06/19 00:42:30;;;;;;;8.20;5.33;;;27.10;83.20;;;;;;4973492;28;20457;-76
2022/06/19 00:45:00;;;;;;;7.07;5.87;;;27.00;83.30;;;;;;4973438;28;20491;-76
2022/06/19 00:47:29;;;;;;;9.17;5.70;;;27.00;83.40;;;;;;4971793;28;20442;-77
2022/06/19 00:50:01;;;;;;;10.63;6.40;;;27.00;83.60;;;;;;4969980;28;20419;-76
2022/06/19 00:52:35;;;;;;;6.50;5.20;;;27.00;83.90;;;;;;4951243;28;20451;-75
2022/06/19 00:55:34;;;;;;;7.53;5.40;;;26.90;84.10;;;;;;4957607;28;20476;-76
2022/06/19 00:58:08;;;;;;;6.63;5.13;;;26.90;84.50;;;;;;4972481;28;20931;-76
2022/06/19 01:00:40;;;;;;;6.40;5.60;;;26.90;84.80;;;;;;4973659;28;20916;-76
2022/06/19 01:03:09;;;;;;;10.50;5.60;;;26.80;85.00;;;;;;4969439;28;20415;-76
2022/06/19 01:05:38;;;;;;;6.73;4.80;;;26.80;85.50;;;;;;4938297;29;20502;-76
2022/06/19 01:08:05;;;;;;;7.60;5.37;;;26.70;85.70;;;;;;4970566;28;20442;-76
2022/06/19 01:10:32;;;;;;;5.43;4.67;;;26.70;86.10;;;;;;4973533;28;20422;-76
2022/06/19 01:13:01;;;;;;;6.10;5.40;;;26.60;86.30;;;;;;4959216;28;20439;-77
2022/06/19 01:15:30;;;;;;;8.90;5.07;;;26.60;86.60;;;;;;4973527;28;20505;-76
2022/06/19 01:18:04;;;;;;;6.20;4.80;;;26.60;87.30;;;;;;4957443;28;20500;-76
2022/06/19 01:20:34;;;;;;;9.77;5.27;;;26.60;87.20;;;;;;4955131;28;20489;-76
2022/06/19 01:23:24;;;;;;;7.30;5.20;;;26.50;87.40;;;;;;4969708;28;20453;-76
2022/06/19 01:25:58;;;;;;;8.47;5.40;;;26.50;87.90;;;;;;4938161;29;20475;-76
2022/06/19 01:31:21;;;;;;;8.33;4.70;;;26.40;88.40;;;;;;4956332;28;20440;-76
2022/06/19 01:33:57;;;;;;;11.17;7.20;;;26.40;88.80;;;;;;4957231;28;20430;-76
2022/06/19 01:36:25;;;;;;;6.30;4.77;;;26.30;89.00;;;;;;4939358;28;20481;-76
2022/06/19 01:38:54;;;;;;;7.93;5.60;;;26.30;89.40;;;;;;4953881;29;20423;-76
2022/06/19 01:41:34;;;;;;;6.57;5.17;;;26.30;89.60;;;;;;4953842;28;20466;-76
2022/06/19 01:44:00;;;;;;;6.27;5.17;;;26.30;89.90;;;;;;4948534;29;20454;-76
2022/06/19 01:46:28;;;;;;;8.67;5.80;;;26.30;90.00;;;;;;4954871;28;20399;-76
2022/06/19 01:48:55;;;;;;;7.90;5.37;;;26.20;90.10;;;;;;4956878;28;20454;-76
2022/06/19 01:51:21;;;;;;;10.80;5.47;;;26.20;90.20;;;;;;4940778;28;20449;-76
2022/06/19 01:54:01;;;;;;;10.83;6.30;;;26.20;90.30;;;;;;4954904;28;20430;-76
2022/06/19 01:56:28;;;;;;;7.10;4.90;;;26.10;90.40;;;;;;4971342;28;20996;-76
2022/06/19 01:59:03;;;;;;;8.40;5.13;;;26.10;90.60;;;;;;4973741;28;20430;-76
2022/06/19 02:01:29;;;;;;;6.13;5.27;;;26.10;90.80;;;;;;4970940;28;20480;-76
2022/06/19 02:04:00;;;;;;;9.53;5.70;;;26.00;90.90;;;;;;4969459;28;20415;-76
2022/06/19 02:06:30;;;;;;;9.20;5.60;;;25.90;91.00;;;;;;4968319;28;20419;-76
2022/06/19 02:09:00;;;;;;;8.43;5.60;;;25.90;91.00;;;;;;4973011;28;20429;-76
2022/06/19 02:11:29;;;;;;;10.17;4.73;;;25.90;91.10;;;;;;4972095;28;20441;-76
2022/06/19 02:13:58;;;;;;;7.83;4.70;;;25.80;91.20;;;;;;4971767;28;20418;-76
2022/06/19 02:16:27;;;;;;;7.50;4.13;;;25.80;91.30;;;;;;4971483;28;20422;-76
2022/06/19 02:18:55;;;;;;;4.73;4.10;;;25.70;91.30;;;;;;4936950;29;20438;-76
2022/06/19 02:21:35;;;;;;;4.57;4.17;;;25.70;91.40;;;;;;4953031;28;20459;-76
2022/06/19 02:24:04;;;;;;;5.57;4.00;;;25.70;91.60;;;;;;4957337;28;20459;-76
2022/06/19 02:26:39;;;;;;;5.03;3.83;;;25.60;91.50;;;;;;4973593;28;20428;-76
2022/06/19 02:29:10;;;;;;;5.10;4.60;;;25.60;91.60;;;;;;4940090;28;20461;-76
2022/06/19 02:31:44;;;;;;;6.90;4.10;;;25.50;91.60;;;;;;4952703;29;20525;-76
2022/06/19 02:34:29;;;;;;;4.20;3.80;;;25.50;91.40;;;;;;4940588;29;20464;-76
2022/06/19 02:37:03;;;;;;;5.13;3.73;;;25.50;91.50;;;;;;4955589;28;20474;-76
2022/06/19 02:39:55;;;;;;;4.47;3.60;;;25.40;91.50;;;;;;4952726;29;20809;-76
2022/06/19 02:42:20;;;;;;;4.90;3.50;;;25.30;91.50;;;;;;4944216;28;20998;-76
2022/06/19 02:44:51;;;;;;;4.80;4.03;;;25.30;91.40;;;;;;4955241;28;20465;-76
2022/06/19 02:47:21;;;;;;;5.10;3.90;;;25.20;91.00;;;;;;4973282;28;20412;-76
2022/06/19 02:49:49;;;;;;;3.50;3.20;;;25.10;90.90;;;;;;4955944;28;20429;-76
2022/06/19 02:52:16;;;;;;;6.13;3.57;;;24.90;91.20;;;;;;4971821;28;20517;-76
2022/06/19 02:54:44;;;;;;;5.03;2.93;;;24.80;91.60;;;;;;4965679;28;20518;-76
2022/06/19 02:57:14;;;;;;;6.83;4.30;;;24.70;91.60;;;;;;4952799;29;21147;-76
2022/06/19 02:59:40;;;;;;;3.07;2.83;;;24.70;91.10;;;;;;4953774;28;20797;-76
2022/06/19 03:02:07;;;;;;;3.70;3.00;;;24.70;90.80;;;;;;4959674;28;20453;-76
2022/06/19 03:04:38;;;;;;;3.43;3.03;;;24.60;91.20;;;;;;4971036;28;20959;-76
2022/06/19 03:07:06;;;;;;;4.30;3.50;;;24.50;90.80;;;;;;4971789;28;20434;-76
2022/06/19 03:09:32;;;;;;;5.80;3.33;;;24.50;90.50;;;;;;4967910;28;20423;-76
2022/06/19 03:11:58;;;;;;;7.60;3.67;;;24.40;90.30;;;;;;4962802;28;20466;-76
2022/06/19 03:14:27;;;;;;;4.57;3.63;;;24.30;90.50;;;;;;4937792;28;20455;-76
2022/06/19 03:16:55;;;;;;;15.53;3.20;;;24.20;90.40;;;;;;4971695;28;20452;-76
2022/06/19 03:19:24;;;;;;;4.37;3.30;;;24.20;90.50;;;;;;4963954;28;20454;-76
2022/06/19 03:21:55;;;;;;;4.03;2.70;;;24.20;90.50;;;;;;4953588;29;20439;-76
2022/06/19 03:24:21;;;;;;;14.50;3.40;;;24.10;90.10;;;;;;4943851;28;20210;-76
2022/06/19 03:26:52;;;;;;;6.63;2.90;;;24.00;90.00;;;;;;4971549;28;20477;-76
2022/06/19 03:29:20;;;;;;;8.20;3.10;;;23.90;89.80;;;;;;4952533;28;20461;-76
2022/06/19 03:31:46;;;;;;;7.17;3.77;;;23.90;89.90;;;;;;4955293;28;20958;-76
2022/06/19 03:34:14;;;;;;;6.17;3.30;;;23.70;89.60;;;;;;4966169;28;20256;-76
2022/06/19 03:36:43;;;;;;;4.93;2.60;;;23.60;88.50;;;;;;4942885;28;20536;-76
2022/06/19 03:39:14;;;;;;;8.37;2.80;;;23.40;88.20;;;;;;4964240;28;20936;-76
2022/06/19 03:41:43;;;;;;;3.90;2.43;;;23.30;87.60;;;;;;4936382;29;20458;-76
2022/06/19 03:44:13;;;;;;;6.07;2.43;;;23.10;87.70;;;;;;4943412;28;20458;-76
2022/06/19 03:46:39;;;;;;;6.07;2.43;;;23.00;87.80;;;;;;4976085;28;20461;-76
2022/06/19 03:49:08;;;;;;;4.20;1.90;;;22.90;86.60;;;;;;4955279;29;20447;-75
2022/06/19 03:51:34;;;;;;;4.60;2.37;;;22.80;86.30;;;;;;4947084;28;20544;-76
2022/06/19 03:54:03;;;;;;;7.33;2.60;;;22.80;86.40;;;;;;4952226;29;20538;-76
2022/06/19 03:56:31;;;;;;;4.23;1.83;;;22.70;85.60;;;;;;4955718;28;20419;-77
2022/06/19 03:59:03;;;;;;;7.23;2.27;;;22.60;84.70;;;;;;4961584;28;20426;-76
2022/06/19 04:01:35;;;;;;;7.80;2.20;;;22.50;84.70;;;;;;4963476;28;20458;-76
2022/06/19 04:04:04;;;;;;;6.17;2.07;;;22.40;83.80;;;;;;4962201;28;20469;-76
2022/06/19 04:06:35;;;;;;;6.17;2.00;;;22.40;84.00;;;;;;4971313;28;20461;-76
2022/06/19 04:09:08;;;;;;;6.53;1.77;;;22.30;82.40;;;;;;4953936;29;20446;-76
2022/06/19 04:11:35;;;;;;;4.90;2.00;;;22.30;80.90;;;;;;4939687;28;20856;-76
2022/06/19 04:14:01;;;;;;;7.40;2.50;;;22.20;80.00;;;;;;4962609;28;20426;-76
2022/06/19 04:16:32;;;;;;;10.10;2.20;;;22.10;80.00;;;;;;4974305;28;20818;-76
2022/06/19 04:19:01;;;;;;;7.27;2.63;;;22.00;79.80;;;;;;4955494;29;20502;-76
2022/06/19 04:21:30;;;;;;;6.60;2.00;;;21.90;80.00;;;;;;4955178;29;20439;-75
2022/06/19 04:23:59;;;;;;;9.33;2.40;;;21.90;81.00;;;;;;4952187;28;20446;-76
2022/06/19 04:26:28;;;;;;;9.13;3.20;;;21.90;79.10;;;;;;4927528;28;20492;-74
2022/06/19 04:28:57;;;;;;;9.00;2.80;;;21.80;77.80;;;;;;4972278;23;20508;-70
2022/06/19 04:31:25;;;;;;;5.70;2.17;;;21.80;77.30;;;;;;4992065;28;20441;-69
2022/06/19 04:33:54;;;;;;;10.20;2.30;;;21.70;76.70;;;;;;4985011;28;20418;-68
2022/06/19 04:36:24;;;;;;;8.80;2.93;;;21.60;76.10;;;;;;4994215;28;20937;-71
2022/06/19 04:38:55;;;;;;;5.13;2.23;;;21.50;77.10;;;;;;4975488;28;20859;-71
2022/06/19 04:41:31;;;;;;;7.80;2.57;;;21.50;75.70;;;;;;4974983;28;20426;-71
2022/06/19 04:44:05;;;;;;;11.13;2.80;;;21.50;76.00;;;;;;4985072;28;20414;-70
2022/06/19 04:46:34;;;;;;;12.37;3.53;;;21.50;75.70;;;;;;4951350;28;20450;-70
2022/06/19 04:49:00;;;;;;;8.63;2.40;;;21.40;75.90;;;;;;4973161;28;20950;-70
2022/06/19 04:51:27;;;;;;;9.80;2.57;;;21.30;75.60;;;;;;4974546;28;20433;-69
2022/06/19 04:53:55;;;;;;;8.33;2.20;;;21.30;75.80;;;;;;4946372;28;20484;-69
2022/06/19 04:56:22;;;;;;;10.67;2.70;;;21.30;76.20;;;;;;4973650;28;20409;-69
2022/06/19 04:58:53;;;;;;;11.90;2.30;;;21.30;76.10;;;;;;4973111;28;20413;-69
2022/06/19 05:01:31;;;;;;;7.60;3.13;;;21.30;75.30;;;;;;4955542;28;20535;-71
2022/06/19 05:04:00;;;;;;;10.10;2.50;;;21.30;75.40;;;;;;4957741;28;20483;-69
2022/06/19 05:06:29;;;;;;;7.60;2.13;;;21.20;75.00;;;;;;4976801;28;20430;-70
2022/06/19 05:08:58;;;;;;;11.60;2.70;;;21.00;75.90;;;;;;4939075;28;20422;-69
2022/06/19 05:11:31;;;;;;;12.33;2.60;;;21.00;75.60;;;;;;4955505;28;20497;-70
2022/06/19 05:14:00;;;;;;;6.13;2.40;;;21.00;74.60;;;;;;4955921;28;20938;-69
2022/06/19 05:16:30;;;;;;;12.17;2.83;;;20.90;74.80;;;;;;4955350;28;20428;-69
2022/06/19 05:19:03;;;;;;;8.70;2.63;;;20.80;74.70;;;;;;4968649;28;20512;-70
2022/06/19 05:21:29;;;;;;;8.73;2.50;;;20.80;73.80;;;;;;4954866;28;20878;-70
2022/06/19 05:23:57;;;;;;;8.07;3.07;;;20.80;74.20;;;;;;4955567;28;20433;-70
2022/06/19 05:26:29;;;;;;;11.07;2.40;;;20.90;73.60;;;;;;4972556;28;20421;-70
2022/06/19 05:29:00;;;;;;;5.73;2.23;;;21.00;73.80;;;;;;4972727;28;20483;-69
2022/06/19 05:31:29;;;;;;;10.70;2.57;;;21.00;73.20;;;;;;4991114;28;20447;-70
2022/06/19 05:33:58;;;;;;;7.03;2.17;;;21.00;72.50;;;;;;4971876;28;20429;-70
2022/06/19 05:36:29;;;;;;;11.17;3.20;;;21.00;72.10;;;;;;4976852;28;20417;-69
2022/06/19 05:38:56;;;;;;;5.50;1.80;;;21.00;72.60;;;;;;4954738;28;20453;-69
2022/06/19 05:41:28;;;;;;;10.70;3.23;;;21.00;72.80;;;;;;4961132;28;20475;-69
2022/06/19 05:43:56;;;;;;;7.77;3.13;;;21.00;72.70;;;;;;4965822;28;20438;-69
2022/06/19 05:46:27;;;;;;;8.87;2.77;;;21.10;72.40;;;;;;4953794;28;20434;-69
2022/06/19 05:48:53;;;;;;;6.90;2.17;;;21.10;72.40;;;;;;4954898;28;20430;-70
2022/06/19 05:51:22;;;;;;;7.97;2.93;;;21.20;72.10;;;;;;4959176;28;20462;-69
2022/06/19 05:53:54;;;;;;;7.47;2.30;;;21.20;71.70;;;;;;4943268;28;20479;-71
2022/06/19 05:56:28;;;;;;;8.60;2.50;;;21.20;72.30;;;;;;4973303;28;20429;-71
2022/06/19 05:58:57;;;;;;;9.13;2.97;;;21.40;72.70;;;;;;4956692;28;20424;-71
2022/06/19 06:01:24;;;;;;;9.30;2.70;;;21.40;72.20;;;;;;4956139;28;20501;-71
2022/06/19 06:03:52;;;;;;;8.70;1.97;;;21.40;71.90;;;;;;4959768;28;21043;-71
2022/06/19 06:06:24;;;;;;;9.47;2.50;;;21.60;71.70;;;;;;4992882;28;20492;-71
2022/06/19 06:08:51;;;;;;;7.80;3.10;;;21.60;72.00;;;;;;4971899;28;20457;-71
2022/06/19 06:11:23;;;;;;;8.10;3.00;;;21.70;72.20;;;;;;4974549;28;20448;-71
2022/06/19 06:13:49;;;;;;;13.40;3.33;;;21.70;72.10;;;;;;4989741;28;20465;-71
2022/06/19 06:16:20;;;;;;;7.00;2.57;;;21.80;72.20;;;;;;4973432;28;20398;-71
2022/06/19 06:18:50;;;;;;;6.77;2.30;;;21.80;72.10;;;;;;4958241;28;20998;-71
2022/06/19 06:21:24;;;;;;;10.40;2.40;;;21.90;71.60;;;;;;4975121;28;21014;-72
2022/06/19 06:23:54;;;;;;;9.40;2.40;;;21.90;71.70;;;;;;4966344;28;20433;-72
2022/06/19 06:26:25;;;;;;;8.33;2.20;;;22.00;71.70;;;;;;4988109;28;20512;-71
2022/06/19 06:28:57;;;;;;;7.37;2.50;;;22.00;71.50;;;;;;4977835;28;20485;-70
2022/06/19 06:31:24;;;;;;;7.63;2.10;;;22.00;71.50;;;;;;4973071;28;20469;-71
2022/06/19 06:33:50;;;;;;;8.10;2.37;;;22.00;71.80;;;;;;4963032;28;20446;-70
2022/06/19 06:36:17;;;;;;;8.50;2.67;;;22.10;72.30;;;;;;4972986;28;20417;-71
2022/06/19 06:38:43;;;;;;;10.30;2.70;;;22.10;72.60;;;;;;4963579;28;20512;-71
2022/06/19 06:41:16;;;;;;;8.07;2.33;;;22.10;71.80;;;;;;4973687;28;20692;-71
2022/06/19 06:43:47;;;;;;;7.67;2.73;;;22.10;72.20;;;;;;4981612;28;20417;-71
2022/06/19 06:46:22;;;;;;;8.60;2.30;;;22.10;72.50;;;;;;4955683;28;20442;-71
2022/06/19 06:49:02;;;;;;;10.23;2.90;;;22.20;72.90;;;;;;4982104;28;20428;-71
2022/06/19 06:51:29;;;;;;;7.93;2.20;;;22.20;72.50;;;;;;4975017;28;21008;-71
2022/06/19 06:54:00;;;;;;;10.03;2.67;;;22.20;72.10;;;;;;4974668;28;20491;-71
2022/06/19 06:56:34;;;;;;;7.50;2.73;;;22.30;72.30;;;;;;4962116;28;20429;-71
2022/06/19 06:59:02;;;;;;;12.67;2.97;;;22.30;72.10;;;;;;4966632;28;20457;-71
2022/06/19 07:01:31;;;;;;;7.90;2.60;;;22.40;71.70;;;;;;4992184;28;20946;-71
2022/06/19 07:03:59;;;;;;;14.07;3.20;;;22.40;70.90;;;;;;4955556;28;20928;-71
2022/06/19 07:06:28;;;;;;;8.20;2.20;;;22.40;71.50;;;;;;4972868;28;20410;-71
2022/06/19 07:08:57;;;;;;;10.03;2.90;;;22.40;72.00;;;;;;4962055;28;20946;-71
2022/06/19 07:11:34;;;;;;;11.20;2.90;;;22.40;72.20;;;;;;4960287;28;20469;-71
2022/06/19 07:13:59;;;;;;;7.70;2.70;;;22.50;71.90;;;;;;4972730;28;20964;-71
2022/06/19 07:16:31;;;;;;;7.93;2.73;;;22.50;71.80;;;;;;4974727;28;20422;-70
2022/06/19 07:18:57;;;;;;;8.53;2.70;;;22.50;71.90;;;;;;4963235;28;20431;-72
2022/06/19 07:21:23;;;;;;;10.00;2.73;;;22.50;72.20;;;;;;4992416;28;20506;-72
2022/06/19 07:23:52;;;;;;;10.50;2.70;;;22.60;72.50;;;;;;4961674;28;20460;-72
2022/06/19 07:26:22;;;;;;;8.80;2.33;;;22.70;72.60;;;;;;4959674;28;20764;-71
2022/06/19 07:28:54;;;;;;;17.33;4.27;;;22.70;72.70;;;;;;4974373;28;21031;-70
2022/06/19 07:31:20;;;;;;;18.10;4.00;;;22.80;71.60;;;;;;4962535;28;20457;-70
2022/06/19 07:33:49;;;;;;;17.40;4.00;;;22.80;71.50;;;;;;4959830;28;20442;-71
2022/06/19 07:36:20;;;;;;;12.00;4.20;;;22.80;70.80;;;;;;4971974;28;21472;-71
2022/06/19 07:38:47;;;;;;;8.10;2.73;;;22.80;70.70;;;;;;4962236;28;20436;-71
2022/06/19 07:41:15;;;;;;;10.00;3.40;;;22.70;70.80;;;;;;4964635;28;20485;-71
2022/06/19 07:43:45;;;;;;;11.70;3.80;;;22.70;70.40;;;;;;4957593;28;20516;-71
2022/06/19 07:46:19;;;;;;;6.97;3.13;;;22.80;70.90;;;;;;4982918;28;20500;-72
2022/06/19 07:51:32;;;;;;;7.47;2.87;;;22.80;70.10;;;;;;4980529;28;20599;-71
2022/06/19 07:54:01;;;;;;;10.00;2.80;;;22.70;70.70;;;;;;4990767;28;20483;-71
2022/06/19 07:56:28;;;;;;;10.93;2.50;;;22.70;70.90;;;;;;4930208;28;20429;-71
2022/06/19 07:58:56;;;;;;;11.00;4.17;;;22.70;71.00;;;;;;4977999;28;20447;-71
2022/06/19 08:01:27;;;;;;;12.47;3.77;;;22.70;70.30;;;;;;4982272;28;20457;-71
2022/06/19 08:03:55;;;;;;;10.67;3.50;;;22.70;70.40;;;;;;4957653;28;20540;-71
2022/06/19 08:06:25;;;;;;;11.87;3.57;;;22.70;70.70;;;;;;4986347;28;20963;-71
2022/06/19 08:08:51;;;;;;;11.17;3.13;;;22.70;71.00;;;;;;4974154;28;20772;-71
2022/06/19 08:11:17;;;;;;;8.50;2.80;;;22.70;70.60;;;;;;4976131;28;20465;-71
2022/06/19 08:13:45;;;;;;;12.00;3.67;;;22.70;70.60;;;;;;4956277;28;20453;-71
2022/06/19 08:16:19;;;;;;;9.73;3.53;;;22.70;70.00;;;;;;4976668;28;20206;-72
2022/06/19 08:18:50;;;;;;;16.23;3.67;;;22.60;70.60;;;;;;4961610;28;20430;-71
2022/06/19 08:21:18;;;;;;;13.60;3.70;;;22.50;70.90;;;;;;4994685;28;20437;-71
2022/06/19 08:23:51;;;;;;;10.63;4.03;;;22.60;71.30;;;;;;4976900;28;20475;-71
2022/06/19 08:26:22;;;;;;;11.70;4.43;;;22.70;71.40;;;;;;4977211;28;20480;-71
2022/06/19 08:29:04;;;;;;;14.17;3.40;;;22.70;70.10;;;;;;4959624;28;20464;-71
2022/06/19 08:31:32;;;;;;;15.10;4.33;;;22.70;70.30;;;;;;4984151;28;20814;-71
2022/06/19 08:34:00;;;;;;;8.63;2.97;;;22.80;70.00;;;;;;4975369;28;20401;-71
2022/06/19 08:36:27;;;;;;;11.50;3.37;;;22.80;70.00;;;;;;4981364;28;20993;-71
2022/06/19 08:39:00;;;;;;;8.40;3.50;;;22.80;69.20;;;;;;4970136;28;20491;-71
2022/06/19 08:41:42;;;;;;;12.27;3.50;;;22.80;69.70;;;;;;4973385;28;20792;-71
2022/06/19 08:44:23;;;;;;;9.63;4.80;;;22.70;69.30;;;;;;4961590;28;20481;-71
2022/06/19 08:47:12;;;;;;;12.33;3.10;;;22.70;69.20;;;;;;4957009;28;20460;-71
2022/06/19 08:49:48;;;;;;;9.10;3.57;;;22.80;69.20;;;;;;4966407;28;20421;-71
2022/06/19 08:52:41;;;;;;;9.53;2.50;;;22.80;69.20;;;;;;4985839;28;20517;-71
2022/06/19 08:55:31;;;;;;;7.30;2.70;;;22.80;68.90;;;;;;4961480;28;20441;-71
2022/06/19 08:58:08;;;;;;;6.33;2.77;;;22.80;68.70;;;;;;4990040;28;20404;-73
2022/06/19 09:00:59;;;;;;;10.73;2.80;;;22.80;68.70;;;;;;4969753;28;20468;-71
2022/06/19 09:03:25;;;;;;;7.77;2.80;;;22.80;68.90;;;;;;4966545;28;20483;-70
2022/06/19 09:06:04;;;;;;;7.60;2.27;;;22.90;68.40;;;;;;4980049;28;20461;-70
2022/06/19 09:09:26;;;;;;;8.10;2.23;;;22.90;69.10;;;;;;4957701;28;20674;-71
2022/06/19 09:11:52;;;;;;;6.23;2.63;;;23.00;68.10;;;;;;4910365;29;21131;-73
2022/06/19 09:14:30;;;;;;;11.47;2.63;;;23.00;69.10;;;;;;4895957;29;20416;-71
2022/06/19 09:17:15;;;;;;;9.47;2.90;;;23.10;68.50;;;;;;4896278;29;20484;-71
2022/06/19 09:19:47;;;;;;;16.73;4.07;;;23.10;67.80;;;;;;4880967;29;20454;-71
2022/06/19 09:22:41;;;;;;;8.47;3.40;;;23.10;67.80;;;;;;4910602;29;20464;-71
2022/06/19 09:25:18;;;;;;;4.43;2.27;;;23.10;68.40;;;;;;4888720;29;20646;-71
2022/06/19 09:27:54;;;;;;;6.80;2.63;;;23.00;68.20;;;;;;4912042;29;20435;-71
2022/06/19 09:31:00;;;;;;;4.77;2.20;;;23.00;68.20;;;;;;4882043;29;20999;-71
2022/06/19 09:33:54;;;;;;;12.93;3.97;;;23.00;69.00;;;;;;4893190;29;20522;-71
2022/06/19 09:36:44;;;;;;;7.30;2.50;;;23.10;69.20;;;;;;4893003;29;20486;-71
2022/06/19 09:39:47;;;;;;;9.53;2.80;;;23.00;69.50;;;;;;4896508;29;20448;-71
2022/06/19 09:42:37;;;;;;;10.00;3.00;;;23.00;69.60;;;;;;4914256;28;20461;-73
2022/06/19 09:45:38;;;;;;;13.73;3.37;;;23.10;69.30;;;;;;4954735;28;20510;-71
2022/06/19 09:48:25;;;;;;;9.63;3.37;;;23.10;69.60;;;;;;4949044;28;20548;-71
2022/06/19 09:51:11;;;;;;;11.90;2.40;;;23.10;69.60;;;;;;4952255;28;20922;-71
2022/06/19 09:53:44;;;;;;;8.00;2.33;;;23.10;69.30;;;;;;4972977;28;20440;-71
2022/06/19 09:56:19;;;;;;;8.03;2.70;;;23.20;69.70;;;;;;4971508;28;20434;-71
2022/06/19 09:59:19;;;;;;;9.90;2.80;;;23.20;69.70;;;;;;4971642;28;20414;-70
2022/06/19 10:01:56;;;;;;;10.60;3.10;;;23.20;70.20;;;;;;4982851;28;20509;-71
2022/06/19 10:04:21;;;;;;;5.80;2.30;;;23.20;70.60;;;;;;4973386;28;20495;-71
2022/06/19 10:06:52;;;;;;;11.83;2.83;;;23.30;70.30;;;;;;4981399;28;20439;-71
2022/06/19 10:09:26;;;;;;;16.27;4.17;;;23.30;70.50;;;;;;4966922;28;20512;-70
2022/06/19 10:11:56;;;;;;;10.70;3.43;;;23.20;71.50;;;;;;4973267;28;20488;-71
2022/06/19 10:14:33;;;;;;;10.03;3.20;;;23.30;70.30;;;;;;4982491;28;21181;-71
2022/06/19 10:17:19;;;;;;;9.67;3.03;;;23.20;70.50;;;;;;4921085;28;20438;-71
2022/06/19 10:19:57;;;;;;;6.87;2.50;;;23.30;70.60;;;;;;4954158;28;20614;-72
2022/06/19 10:22:55;;;;;;;11.83;2.93;;;23.20;70.70;;;;;;4921320;28;20540;-71
2022/06/19 10:26:19;;;;;;;9.27;3.37;;;23.30;71.80;;;;;;4950437;28;20460;-71
2022/06/19 10:29:00;;;;;;;12.10;3.53;;;23.30;72.20;;;;;;4918044;28;20450;-71
2022/06/19 10:31:50;;;;;;;11.63;3.27;;;23.30;71.70;;;;;;4986899;28;20484;-69
2022/06/19 10:34:24;;;;;;;12.50;3.17;;;23.30;71.80;;;;;;4988340;28;20437;-71
2022/06/19 10:36:56;;;;;;;7.90;2.90;;;23.40;71.50;;;;;;4971934;28;20472;-72
2022/06/19 10:39:31;;;;;;;6.97;2.60;;;23.40;71.90;;;;;;4970071;28;20887;-71
2022/06/19 10:42:06;;;;;;;7.73;2.90;;;23.40;71.70;;;;;;4955998;28;20455;-72
2022/06/19 10:45:08;;;;;;;10.33;3.23;;;23.40;71.90;;;;;;4988187;28;20912;-71
2022/06/19 10:47:38;;;;;;;8.53;2.77;;;23.40;72.30;;;;;;4965159;28;20950;-71
2022/06/19 10:50:04;;;;;;;19.20;3.80;;;23.40;73.10;;;;;;4967861;28;20426;-71
2022/06/19 10:52:50;;;;;;;9.50;3.20;;;23.40;72.60;;;;;;4964592;28;20445;-71
2022/06/19 10:55:50;;;;;;;8.50;2.43;;;23.40;72.50;;;;;;4986829;28;20508;-75
2022/06/19 10:58:25;;;;;;;9.03;2.90;;;23.60;72.40;;;;;;4966480;28;20516;-72
2022/06/19 11:00:58;;;;;;;11.40;3.73;;;23.70;72.30;;;;;;4990238;28;20410;-71
2022/06/19 11:06:38;;;;;;;8.97;2.70;;;23.80;71.30;;;;;;4978770;28;20480;-72
2022/06/19 11:09:15;;;;;;;9.00;2.20;;;23.90;71.20;;;;;;4992486;28;20413;-72
2022/06/19 11:11:44;;;;;;;6.53;2.50;;;23.90;70.70;;;;;;4950453;28;20483;-71
2022/06/19 11:14:28;;;;;;;7.50;2.57;;;24.00;71.10;;;;;;4974847;28;20523;-71
2022/06/19 11:17:28;;;;;;;6.17;2.40;;;24.10;70.00;;;;;;4967135;28;20422;-71
2022/06/19 11:19:55;;;;;;;9.77;2.60;;;24.20;70.20;;;;;;4940895;28;20434;-72
2022/06/19 11:22:33;;;;;;;7.83;2.63;;;24.20;69.90;;;;;;4975779;28;20453;-71
2022/06/19 11:25:21;;;;;;;9.00;3.20;;;24.20;71.40;;;;;;4977996;28;20996;-71
2022/06/19 11:27:57;;;;;;;6.63;2.90;;;24.20;69.90;;;;;;4958535;28;20458;-72
2022/06/19 11:30:39;;;;;;;25.57;4.43;;;24.20;68.90;;;;;;4976284;28;20520;-74
2022/06/19 11:33:12;;;;;;;16.20;3.60;;;24.10;70.40;;;;;;4976403;28;20425;-74
2022/06/19 11:35:49;;;;;;;11.10;2.97;;;24.10;70.80;;;;;;4926872;28;20930;-74
2022/06/19 11:38:36;;;;;;;10.20;3.03;;;24.10;70.80;;;;;;4977059;28;20850;-73
2022/06/19 11:41:16;;;;;;;11.80;2.67;;;24.20;70.70;;;;;;4958201;28;20461;-74
2022/06/19 11:43:43;;;;;;;11.20;3.47;;;24.30;70.60;;;;;;4958892;28;20405;-74
2022/06/19 11:46:26;;;;;;;7.90;2.90;;;24.40;70.40;;;;;;4980454;28;20484;-74
2022/06/19 11:48:56;;;;;;;10.80;2.60;;;24.50;70.20;;;;;;4995193;28;20437;-74
2022/06/19 11:51:32;;;;;;;10.33;2.60;;;24.60;70.00;;;;;;4955029;28;20517;-74
2022/06/19 11:54:01;;;;;;;9.50;2.73;;;24.70;69.80;;;;;;4975536;28;20444;-74
2022/06/19 11:56:38;;;;;;;9.97;2.47;;;24.80;69.70;;;;;;4964387;28;20484;-74
2022/06/19 11:59:22;;;;;;;5.87;2.43;;;24.90;69.50;;;;;;4994872;28;20407;-74
2022/06/19 12:01:51;;;;;;;4.47;2.33;;;24.90;69.20;;;;;;4951242;28;20458;-74
2022/06/19 12:04:29;;;;;;;7.13;2.50;;;25.00;69.10;;;;;;4975418;28;20970;-74
2022/06/19 12:07:03;;;;;;;8.17;2.87;;;25.10;68.90;;;;;;4963341;28;20433;-75
2022/06/19 12:09:32;;;;;;;6.10;2.40;;;25.10;68.60;;;;;;4957979;28;20464;-74
2022/06/19 12:12:05;;;;;;;6.57;2.30;;;25.20;68.50;;;;;;4938417;28;20461;-74
2022/06/19 12:14:50;;;;;;;6.80;2.90;;;25.30;68.40;;;;;;4942058;28;20454;-74
2022/06/19 12:17:31;;;;;;;6.20;2.30;;;25.30;68.20;;;;;;4957699;28;20769;-74
2022/06/19 12:20:05;;;;;;;4.67;2.40;;;25.40;68.10;;;;;;4969406;28;20528;-74
2022/06/19 12:23:08;;;;;;;8.20;2.13;;;25.40;67.80;;;;;;4960412;28;20471;-74
2022/06/19 12:25:49;;;;;;;7.97;2.30;;;25.50;67.60;;;;;;4957111;28;20533;-74
2022/06/19 12:28:20;;;;;;;7.23;2.90;;;25.50;67.50;;;;;;4975056;28;20442;-74
2022/06/19 12:30:50;;;;;;;6.07;2.43;;;25.60;67.50;;;;;;4968730;28;20430;-74
2022/06/19 12:33:23;;;;;;;4.87;2.23;;;25.60;67.30;;;;;;4926191;28;20444;-74
2022/06/19 12:35:50;;;;;;;6.40;2.47;;;25.60;67.10;;;;;;4989600;28;20437;-74
2022/06/19 12:38:21;;;;;;;6.30;2.60;;;25.70;67.00;;;;;;5037671;23;20500;-70
2022/06/19 12:40:47;;;;;;;4.83;2.50;;;25.70;66.80;;;;;;4959340;28;20456;-70
2022/06/19 12:43:28;;;;;;;4.97;2.40;;;25.80;66.70;;;;;;4941285;29;20446;-70
2022/06/19 12:45:58;;;;;;;10.93;3.00;;;25.80;66.60;;;;;;4954356;29;20958;-70
2022/06/19 12:48:24;;;;;;;4.63;2.40;;;25.80;66.60;;;;;;4970014;28;20923;-70
2022/06/19 12:51:01;;;;;;;6.07;2.67;;;25.90;66.40;;;;;;4973444;28;20975;-69
2022/06/19 12:54:04;;;;;;;4.70;2.70;;;25.90;66.30;;;;;;4955475;28;20449;-70
2022/06/19 12:56:52;;;;;;;8.97;2.77;;;25.90;66.20;;;;;;4974632;28;20452;-70
2022/06/19 12:59:44;;;;;;;5.53;2.83;;;26.00;66.10;;;;;;4965706;28;20856;-70
2022/06/19 13:02:37;;;;;;;4.73;2.20;;;26.00;65.90;;;;;;4964073;28;20534;-70
2022/06/19 13:05:44;;;;;;;7.47;2.80;;;26.00;65.80;;;;;;4955059;29;20447;-70
2022/06/19 13:08:13;;;;;;;5.60;2.27;;;26.10;65.90;;;;;;4971973;28;20433;-70
2022/06/19 13:10:54;;;;;;;6.50;2.97;;;26.10;65.90;;;;;;4967883;28;20431;-70
2022/06/19 13:13:34;;;;;;;6.00;2.50;;;26.10;65.90;;;;;;4971746;28;20515;-70
2022/06/19 13:16:30;;;;;;;6.67;3.07;;;26.10;65.80;;;;;;4956443;28;20446;-70
2022/06/19 13:19:17;;;;;;;6.43;2.93;;;26.20;65.80;;;;;;4969117;28;20432;-70
2022/06/19 13:22:01;;;;;;;5.67;2.57;;;26.20;65.80;;;;;;4968588;28;20512;-70
2022/06/19 13:24:58;;;;;;;9.63;3.30;;;26.20;65.80;;;;;;4972907;28;20845;-70